Wentworth, South Dakota
Current Conditions -  °F | °C
As of 9:55 AM on Thursday 30 Oct 2014 (Local Time) from KMDS Reporting Station
Few Clouds Few Clouds  
Wind Chill: 36°   Ceiling: Unl
Heat Index: 43°   Visibility: 10mi
Dew Point: 37°   Wind: 14mph
Humidity: 81%   Direction: 340°NNW
Pressure: 30.07"   Gusts: NA
Location:  44°N, 96.96°W
Report Text: KMDS 301455Z AUTO 34012KT 10SM FEW029 06/03 A3007 RMK AO2
Loading
Personal Weather Stations






























Interactive Weather Map
Tropical Storm Tracking
New forecast layout! Learn more

10-Day Weather Forecast

Advertisements
Track Severe Weather on mobile